createdAt,value
2023-04-15T00:01:13.013Z,4.50
2023-04-15T00:03:40.867Z,4.70
2023-04-15T00:06:08.643Z,5.30
2023-04-15T00:08:36.168Z,5.00
2023-04-15T00:11:03.865Z,5.10
2023-04-15T00:13:34.317Z,6.00
2023-04-15T00:16:02.408Z,5.50
2023-04-15T00:18:30.158Z,6.10
2023-04-15T00:20:57.809Z,6.40
2023-04-15T00:23:25.757Z,5.70
2023-04-15T00:25:53.276Z,6.60
2023-04-15T00:28:20.855Z,5.40
2023-04-15T00:30:48.498Z,5.30
2023-04-15T00:33:16.072Z,8.40
2023-04-15T00:35:43.692Z,6.30
2023-04-15T00:38:11.486Z,6.00
2023-04-15T00:40:39.190Z,5.40
2023-04-15T00:43:06.901Z,6.30
2023-04-15T00:45:34.543Z,4.80
2023-04-15T00:48:02.418Z,5.60
2023-04-15T00:50:30.037Z,6.20
2023-04-15T00:52:57.601Z,5.50
2023-04-15T00:55:25.216Z,6.30
2023-04-15T00:57:52.909Z,6.00
2023-04-15T01:00:21.062Z,6.20
2023-04-15T01:02:49.195Z,5.50
2023-04-15T01:05:17.424Z,5.30
2023-04-15T01:07:44.981Z,6.70
2023-04-15T01:10:12.559Z,7.80
2023-04-15T01:12:40.539Z,6.80
2023-04-15T01:15:08.642Z,6.00
2023-04-15T01:17:36.460Z,6.40
2023-04-15T01:20:04.439Z,6.60
2023-04-15T01:22:34.289Z,7.00
2023-04-15T01:25:06.865Z,6.20
2023-04-15T01:27:35.611Z,6.40
2023-04-15T01:30:03.291Z,6.30
2023-04-15T01:32:30.962Z,6.30
2023-04-15T01:34:58.506Z,5.40
2023-04-15T01:37:26.216Z,5.60
2023-04-15T01:39:53.765Z,4.80
2023-04-15T01:42:21.702Z,5.50
2023-04-15T01:44:49.273Z,4.00
2023-04-15T01:47:16.841Z,5.00
2023-04-15T01:49:44.389Z,5.40
2023-04-15T01:52:11.954Z,5.80
2023-04-15T01:54:39.478Z,5.50
2023-04-15T01:57:07.031Z,6.00
2023-04-15T01:59:34.613Z,6.30
2023-04-15T02:02:02.176Z,5.70
2023-04-15T02:04:29.932Z,5.50
2023-04-15T02:06:57.455Z,5.20
2023-04-15T02:09:25.097Z,5.30
2023-04-15T02:11:52.765Z,5.00
2023-04-15T02:14:20.300Z,5.00
2023-04-15T02:16:47.946Z,4.80
2023-04-15T02:19:15.572Z,5.00
2023-04-15T02:21:43.154Z,5.00
2023-04-15T02:24:10.649Z,4.60
2023-04-15T02:26:38.185Z,5.60
2023-04-15T02:29:06.238Z,6.60
2023-04-15T02:31:33.829Z,7.80
2023-04-15T02:34:01.468Z,8.40
2023-04-15T02:36:28.998Z,7.40
2023-04-15T02:38:56.525Z,8.10
2023-04-15T02:41:24.058Z,9.40
2023-04-15T02:43:51.556Z,6.50
2023-04-15T02:46:19.128Z,7.10
2023-04-15T02:48:46.707Z,9.20
2023-04-15T02:51:14.693Z,13.90
2023-04-15T02:53:42.901Z,17.00
2023-04-15T02:56:10.452Z,12.60
2023-04-15T02:58:38.262Z,15.60
2023-04-15T03:04:46.460Z,14.50
2023-04-15T03:07:14.231Z,14.30
2023-04-15T03:09:41.779Z,14.80
2023-04-15T03:12:09.379Z,12.30
2023-04-15T03:14:36.993Z,10.90
2023-04-15T03:17:04.709Z,10.30
2023-04-15T03:19:32.310Z,10.00
2023-04-15T03:21:59.857Z,10.80
2023-04-15T03:24:27.496Z,10.00
2023-04-15T03:26:55.176Z,10.50
2023-04-15T03:29:22.818Z,10.50
2023-04-15T03:31:50.451Z,10.40
2023-04-15T03:34:18.078Z,10.90
2023-04-15T03:36:46.402Z,11.50
2023-04-15T03:39:14.055Z,10.50
2023-04-15T03:41:41.700Z,8.40
2023-04-15T03:44:09.383Z,7.80
2023-04-15T03:46:36.926Z,10.30
2023-04-15T03:49:06.951Z,15.50
2023-04-15T03:51:34.527Z,15.30
2023-04-15T03:54:02.062Z,14.10
2023-04-15T03:56:29.560Z,14.60
2023-04-15T03:58:57.107Z,10.80
2023-04-15T04:01:24.743Z,9.30
2023-04-15T04:03:52.477Z,8.80
2023-04-15T04:06:20.268Z,8.00
2023-04-15T04:08:47.785Z,7.50
2023-04-15T04:11:15.322Z,7.70
2023-04-15T04:13:42.837Z,6.60
2023-04-15T04:16:10.523Z,8.60
2023-04-15T04:18:38.124Z,14.00
2023-04-15T04:21:05.960Z,14.90
2023-04-15T04:23:33.557Z,17.10
2023-04-15T04:26:01.116Z,19.50
2023-04-15T04:28:28.675Z,17.10
2023-04-15T04:30:56.371Z,11.60
2023-04-15T04:33:24.004Z,13.20
2023-04-15T04:35:51.566Z,16.10
2023-04-15T04:38:19.086Z,17.10
2023-04-15T04:40:46.673Z,18.10
2023-04-15T04:43:14.272Z,18.50
2023-04-15T04:45:41.927Z,16.60
2023-04-15T04:48:09.452Z,14.30
2023-04-15T04:50:37.340Z,13.60
2023-04-15T04:53:04.952Z,11.80
2023-04-15T04:55:32.487Z,8.80
2023-04-15T04:58:00.184Z,8.20
2023-04-15T05:00:27.690Z,7.50
2023-04-15T05:02:55.469Z,5.20
2023-04-15T05:05:23.199Z,7.30
2023-04-15T05:07:50.849Z,6.90
2023-04-15T05:10:18.462Z,7.50
2023-04-15T05:12:46.014Z,8.00
2023-04-15T05:15:13.621Z,7.60
2023-04-15T05:17:41.222Z,9.30
2023-04-15T05:20:09.097Z,8.70
2023-04-15T05:22:36.998Z,8.80
2023-04-15T05:25:04.988Z,12.40
2023-04-15T05:27:32.569Z,15.50
2023-04-15T05:30:00.173Z,12.40
2023-04-15T05:32:27.734Z,11.80
2023-04-15T05:34:55.297Z,11.80
2023-04-15T05:37:22.807Z,12.00
2023-04-15T05:39:50.357Z,11.10
2023-04-15T05:42:17.911Z,8.60
2023-04-15T05:44:45.470Z,8.10
2023-04-15T05:47:13.022Z,7.20
2023-04-15T05:49:40.605Z,6.20
2023-04-15T05:52:08.111Z,6.30
2023-04-15T05:54:35.622Z,4.90
2023-04-15T05:57:03.254Z,5.30
2023-04-15T05:59:30.754Z,5.40
2023-04-15T06:01:58.331Z,5.40
2023-04-15T06:04:26.050Z,5.50
2023-04-15T06:06:53.776Z,5.80
2023-04-15T06:09:21.368Z,5.90
2023-04-15T06:11:48.874Z,6.60
2023-04-15T06:14:16.413Z,6.40
2023-04-15T06:16:44.098Z,6.90
2023-04-15T06:19:11.667Z,6.30
2023-04-15T06:21:39.234Z,4.60
2023-04-15T06:24:07.016Z,5.60
2023-04-15T06:26:34.595Z,5.90
2023-04-15T06:29:02.310Z,7.20
2023-04-15T06:31:30.405Z,6.80
2023-04-15T06:33:57.971Z,7.30
2023-04-15T06:36:25.508Z,6.50
2023-04-15T06:38:53.030Z,6.20
2023-04-15T06:41:20.599Z,5.20
2023-04-15T06:43:48.213Z,6.50
2023-04-15T06:46:15.819Z,6.30
2023-04-15T06:48:43.433Z,5.80
2023-04-15T06:51:10.958Z,6.10
2023-04-15T06:53:38.534Z,5.50
2023-04-15T06:56:07.774Z,5.30
2023-04-15T06:58:35.388Z,4.20
2023-04-15T07:01:03.048Z,4.00
2023-04-15T07:03:32.636Z,3.30
2023-04-15T07:06:00.517Z,4.30
2023-04-15T07:08:28.028Z,4.00
2023-04-15T07:10:55.546Z,3.00
2023-04-15T07:13:23.113Z,4.00
2023-04-15T07:15:50.658Z,3.20
2023-04-15T07:18:18.196Z,5.30
2023-04-15T07:20:45.755Z,5.00
2023-04-15T07:23:13.286Z,4.60
2023-04-15T07:25:40.861Z,5.40
2023-04-15T07:28:08.408Z,5.30
2023-04-15T07:30:36.040Z,4.90
2023-04-15T07:33:03.846Z,3.80
2023-04-15T07:35:31.516Z,4.70
2023-04-15T07:37:59.034Z,3.90
2023-04-15T07:40:26.668Z,4.00
2023-04-15T07:42:54.481Z,3.40
2023-04-15T07:45:22.005Z,4.00
2023-04-15T07:47:49.681Z,5.00
2023-04-15T07:50:17.541Z,2.70
2023-04-15T07:52:45.203Z,2.10
2023-04-15T07:55:13.313Z,4.20
2023-04-15T07:57:40.817Z,3.30
2023-04-15T08:00:08.922Z,3.00
2023-04-15T08:02:38.192Z,3.00
2023-04-15T08:05:07.828Z,2.70
2023-04-15T08:07:37.469Z,2.50
2023-04-15T08:10:05.797Z,2.20
2023-04-15T08:12:33.355Z,2.20
2023-04-15T08:15:00.923Z,2.10
2023-04-15T08:17:28.521Z,2.10
2023-04-15T08:19:56.154Z,3.50
2023-04-15T08:22:23.670Z,2.40
2023-04-15T08:24:51.255Z,2.30
2023-04-15T08:27:19.137Z,2.40
2023-04-15T08:29:46.696Z,1.90
2023-04-15T08:32:14.382Z,2.20
2023-04-15T08:34:42.073Z,2.30
2023-04-15T08:37:10.845Z,2.20
2023-04-15T08:39:39.069Z,1.40
2023-04-15T08:42:12.733Z,1.80
2023-04-15T08:44:40.788Z,1.80
2023-04-15T08:47:09.086Z,1.90
2023-04-15T08:49:40.065Z,1.60
2023-04-15T08:52:09.186Z,2.00
2023-04-15T08:54:37.894Z,1.30
2023-04-15T08:57:06.286Z,1.70
2023-04-15T08:59:33.886Z,1.40
2023-04-15T09:02:02.657Z,1.60
2023-04-15T09:04:30.373Z,1.30
2023-04-15T09:06:57.929Z,0.90
2023-04-15T09:09:25.505Z,1.60
2023-04-15T09:11:53.120Z,1.60
2023-04-15T09:14:20.624Z,1.40
2023-04-15T09:16:57.868Z,1.40
2023-04-15T09:19:25.650Z,1.50
2023-04-15T09:21:58.910Z,1.60
2023-04-15T09:24:36.448Z,1.30
2023-04-15T09:27:04.439Z,1.20
2023-04-15T09:29:32.073Z,1.50
2023-04-15T09:32:13.687Z,1.30
2023-04-15T09:34:41.281Z,1.50
2023-04-15T09:37:08.817Z,1.70
2023-04-15T09:39:46.930Z,2.20
2023-04-15T09:42:14.533Z,2.30
2023-04-15T09:44:42.092Z,2.40
2023-04-15T09:47:09.649Z,2.20
2023-04-15T09:49:37.247Z,2.40
2023-04-15T09:52:06.455Z,2.70
2023-04-15T09:54:38.482Z,3.00
2023-04-15T09:57:08.149Z,2.90
2023-04-15T09:59:36.026Z,2.60
2023-04-15T10:02:06.442Z,2.40
2023-04-15T10:04:40.765Z,2.90
2023-04-15T10:07:12.293Z,2.60
2023-04-15T10:09:40.500Z,3.10
2023-04-15T10:12:08.992Z,3.10
2023-04-15T10:14:38.872Z,2.60
2023-04-15T10:17:08.050Z,2.50
2023-04-15T10:19:37.493Z,2.30
2023-04-15T10:22:06.287Z,2.50
2023-04-15T10:24:34.209Z,2.10
2023-04-15T10:27:03.660Z,2.30
2023-04-15T10:29:31.478Z,2.20
2023-04-15T10:31:59.911Z,2.80
2023-04-15T10:34:27.945Z,2.30
2023-04-15T10:36:56.722Z,1.80
2023-04-15T10:39:33.524Z,2.70
2023-04-15T10:42:19.733Z,2.40
2023-04-15T10:44:51.455Z,1.90
2023-04-15T10:47:21.468Z,2.20
2023-04-15T10:49:57.877Z,2.30
2023-04-15T10:52:27.552Z,2.40
2023-04-15T10:55:18.880Z,2.20
2023-04-15T10:57:46.486Z,2.20
2023-04-15T11:00:15.785Z,2.90
2023-04-15T11:02:54.095Z,2.60
2023-04-15T11:05:42.777Z,3.10
2023-04-15T11:08:11.643Z,2.60
2023-04-15T11:10:39.138Z,3.00
2023-04-15T11:13:09.634Z,2.80
2023-04-15T11:15:39.820Z,2.50
2023-04-15T11:18:19.236Z,2.80
2023-04-15T11:20:59.128Z,2.60
2023-04-15T11:23:32.473Z,2.50
2023-04-15T11:26:01.853Z,2.20
2023-04-15T11:28:31.202Z,2.60
2023-04-15T11:31:05.565Z,2.20
2023-04-15T11:33:33.140Z,2.40
2023-04-15T11:36:01.225Z,3.30
2023-04-15T11:38:29.052Z,2.70
2023-04-15T11:40:57.005Z,2.70
2023-04-15T11:43:24.656Z,2.50
2023-04-15T11:46:00.380Z,2.30
2023-04-15T11:48:30.162Z,2.30
2023-04-15T11:51:02.741Z,2.10
2023-04-15T11:53:56.645Z,2.70
2023-04-15T11:56:26.341Z,2.10
2023-04-15T11:58:56.985Z,2.10
2023-04-15T12:01:35.989Z,2.30
2023-04-15T12:04:11.621Z,2.40
2023-04-15T12:06:39.354Z,2.20
2023-04-15T12:09:06.984Z,2.20
2023-04-15T12:11:45.057Z,2.10
2023-04-15T12:14:15.874Z,2.00
2023-04-15T12:16:49.775Z,2.60
2023-04-15T12:19:24.691Z,3.00
2023-04-15T12:21:58.266Z,2.90
2023-04-15T12:24:28.265Z,1.90
2023-04-15T12:27:01.945Z,2.10
2023-04-15T12:29:31.101Z,2.20
2023-04-15T12:32:04.740Z,2.10
2023-04-15T12:34:37.384Z,2.20
2023-04-15T12:37:07.275Z,2.70
2023-04-15T12:39:39.805Z,2.00
2023-04-15T12:42:08.493Z,2.40
2023-04-15T12:44:37.236Z,2.00
2023-04-15T12:47:05.116Z,2.10
2023-04-15T12:49:33.107Z,1.80
2023-04-15T12:52:02.515Z,2.10
2023-04-15T12:54:31.057Z,2.20
2023-04-15T12:56:59.651Z,2.30
2023-04-15T12:59:28.617Z,2.10
2023-04-15T13:01:56.284Z,1.80
2023-04-15T13:04:24.131Z,1.80
2023-04-15T13:06:51.764Z,2.10
2023-04-15T13:09:19.473Z,1.70
2023-04-15T13:11:47.064Z,1.50
2023-04-15T13:14:14.579Z,1.70
2023-04-15T13:16:42.155Z,1.50
2023-04-15T13:19:09.701Z,1.70
2023-04-15T13:21:37.211Z,1.20
2023-04-15T13:24:05.185Z,1.50
2023-04-15T13:29:00.890Z,1.30
2023-04-15T13:33:57.611Z,1.60
2023-04-15T13:36:25.271Z,1.20
2023-04-15T13:38:52.846Z,1.30
2023-04-15T13:41:20.379Z,1.20
2023-04-15T13:43:47.953Z,1.40
2023-04-15T13:46:15.964Z,1.30
2023-04-15T13:48:43.584Z,1.60
2023-04-15T13:51:11.278Z,1.30
2023-04-15T13:53:39.762Z,1.10
2023-04-15T13:56:08.354Z,1.30
2023-04-15T13:58:37.226Z,1.20
2023-04-15T14:01:06.463Z,1.40
2023-04-15T14:03:35.359Z,2.30
2023-04-15T14:06:03.097Z,1.80
2023-04-15T14:08:30.660Z,2.00
2023-04-15T14:10:58.256Z,1.60
2023-04-15T14:13:25.893Z,2.60
2023-04-15T14:15:53.564Z,2.10
2023-04-15T14:18:21.219Z,2.70
2023-04-15T14:20:48.808Z,1.60
2023-04-15T14:23:16.339Z,2.30
2023-04-15T14:25:45.067Z,2.50
2023-04-15T14:28:14.623Z,2.00
2023-04-15T14:30:42.434Z,1.80
2023-04-15T14:33:10.089Z,2.30
2023-04-15T14:35:37.837Z,2.30
2023-04-15T14:38:05.466Z,2.10
2023-04-15T14:40:33.629Z,1.90
2023-04-15T14:43:01.182Z,2.00
2023-04-15T14:45:30.395Z,1.80
2023-04-15T14:47:59.341Z,2.10
2023-04-15T14:50:26.960Z,1.70
2023-04-15T14:52:54.465Z,1.90
2023-04-15T14:55:22.110Z,2.00
2023-04-15T14:57:49.737Z,1.90
2023-04-15T15:00:17.459Z,1.90
2023-04-15T15:02:45.139Z,1.90
2023-04-15T15:05:13.024Z,1.60
2023-04-15T15:07:40.748Z,1.40
2023-04-15T15:10:08.996Z,1.80
2023-04-15T15:12:36.605Z,1.70
2023-04-15T15:15:09.208Z,1.50
2023-04-15T15:17:43.661Z,1.60
2023-04-15T15:20:11.481Z,1.50
2023-04-15T15:22:39.014Z,1.80
2023-04-15T15:25:06.795Z,2.30
2023-04-15T15:27:35.487Z,1.70
2023-04-15T15:30:05.085Z,1.80
2023-04-15T15:32:32.687Z,2.00
2023-04-15T15:35:00.272Z,2.20
2023-04-15T15:37:28.032Z,1.80
2023-04-15T15:39:55.544Z,2.10
2023-04-15T15:42:23.263Z,2.30
2023-04-15T15:44:50.838Z,2.00
2023-04-15T15:47:19.160Z,1.80
2023-04-15T15:49:46.758Z,2.30
2023-04-15T15:52:14.375Z,2.60
2023-04-15T15:54:41.928Z,2.40
2023-04-15T15:57:09.493Z,2.70
2023-04-15T15:59:37.046Z,2.90
2023-04-15T16:02:04.802Z,2.50
2023-04-15T16:04:32.668Z,2.10
2023-04-15T16:07:00.421Z,2.50
2023-04-15T16:09:27.964Z,2.90
2023-04-15T16:11:55.617Z,3.10
2023-04-15T16:14:24.172Z,3.00
2023-04-15T16:16:52.626Z,2.60
2023-04-15T16:19:21.245Z,3.00
2023-04-15T16:21:48.865Z,3.30
2023-04-15T16:24:16.420Z,3.00
2023-04-15T16:26:43.933Z,2.90
2023-04-15T16:29:11.470Z,3.00
2023-04-15T16:31:39.152Z,3.20
2023-04-15T16:34:07.084Z,4.10
2023-04-15T16:36:35.220Z,3.40
2023-04-15T16:39:03.060Z,3.30
2023-04-15T16:41:32.604Z,3.10
2023-04-15T16:44:02.084Z,3.90
2023-04-15T16:46:29.848Z,4.80
2023-04-15T16:48:57.435Z,4.50
2023-04-15T16:51:25.001Z,4.50
2023-04-15T16:53:53.035Z,6.00
2023-04-15T16:56:20.605Z,5.70
2023-04-15T16:58:48.157Z,6.90
2023-04-15T17:01:15.762Z,7.20
2023-04-15T17:03:43.737Z,7.00
2023-04-15T17:06:11.652Z,6.70
2023-04-15T17:08:39.331Z,10.10
2023-04-15T17:11:07.256Z,8.40
2023-04-15T17:13:34.860Z,9.10
2023-04-15T17:16:02.651Z,8.90
2023-04-15T17:18:30.280Z,8.70
2023-04-15T17:20:57.939Z,12.00
2023-04-15T17:23:25.991Z,7.70
2023-04-15T17:25:53.710Z,6.60
2023-04-15T17:28:21.328Z,5.50
2023-04-15T17:30:49.009Z,5.50
2023-04-15T17:33:57.504Z,5.00
2023-04-15T17:36:04.870Z,4.10
2023-04-15T17:38:32.525Z,6.50
2023-04-15T17:41:00.146Z,5.20
2023-04-15T17:43:27.701Z,5.80
2023-04-15T17:45:56.542Z,6.30
2023-04-15T17:48:25.641Z,5.80
2023-04-15T17:50:53.222Z,6.10
2023-04-15T17:53:20.852Z,5.20
2023-04-15T17:55:48.396Z,4.80
2023-04-15T17:58:16.137Z,9.80
2023-04-15T18:00:43.693Z,8.60
2023-04-15T18:03:11.548Z,7.10
2023-04-15T18:05:41.365Z,6.60
2023-04-15T18:08:10.514Z,7.20
2023-04-15T18:10:39.270Z,7.90
2023-04-15T18:13:07.166Z,11.00
2023-04-15T18:15:35.078Z,12.30
2023-04-15T18:18:02.803Z,13.60
2023-04-15T18:20:30.381Z,21.80
2023-04-15T18:22:58.224Z,18.70
2023-04-15T18:25:25.943Z,12.20
2023-04-15T18:27:54.912Z,11.70
2023-04-15T18:30:22.961Z,9.60
2023-04-15T18:32:50.871Z,8.60
2023-04-15T18:35:18.784Z,6.80
2023-04-15T18:37:46.338Z,3.60
2023-04-15T18:40:13.950Z,7.00
2023-04-15T18:42:41.600Z,7.60
2023-04-15T18:45:09.550Z,7.70
2023-04-15T18:47:37.458Z,6.90
2023-04-15T18:50:05.888Z,7.60
2023-04-15T18:52:33.592Z,8.60
2023-04-15T18:55:01.248Z,9.50
2023-04-15T18:57:34.791Z,9.60
2023-04-15T19:00:03.367Z,9.80
2023-04-15T19:02:31.143Z,9.40
2023-04-15T19:04:59.382Z,9.50
2023-04-15T19:07:26.978Z,9.20
2023-04-15T19:09:54.556Z,9.70
2023-04-15T19:12:22.391Z,12.20
2023-04-15T19:14:50.325Z,11.20
2023-04-15T19:17:17.980Z,9.90
2023-04-15T19:19:45.543Z,10.20
2023-04-15T19:22:13.395Z,10.10
2023-04-15T19:24:41.250Z,10.90
2023-04-15T19:27:09.163Z,7.10
2023-04-15T19:29:37.126Z,9.90
2023-04-15T19:32:04.956Z,10.60
2023-04-15T19:34:32.855Z,9.90
2023-04-15T19:37:00.688Z,9.80
2023-04-15T19:39:28.263Z,10.60
2023-04-15T19:41:55.894Z,11.40
2023-04-15T19:44:23.430Z,9.90
2023-04-15T19:46:52.452Z,10.70
2023-04-15T19:49:20.308Z,10.60
2023-04-15T19:51:49.390Z,10.70
2023-04-15T19:54:16.976Z,10.60
2023-04-15T19:56:44.550Z,11.90
2023-04-15T19:59:12.175Z,13.60
2023-04-15T20:01:39.734Z,14.70
2023-04-15T20:04:07.500Z,13.80
2023-04-15T20:06:35.213Z,13.20
2023-04-15T20:09:03.418Z,12.60
2023-04-15T20:12:05.122Z,13.00
2023-04-15T20:14:18.929Z,11.70
2023-04-15T20:16:46.579Z,11.90
2023-04-15T20:19:14.271Z,10.70
2023-04-15T20:21:42.092Z,11.30
2023-04-15T20:24:09.932Z,14.70
2023-04-15T20:26:37.571Z,14.50
2023-04-15T20:29:05.460Z,13.70
2023-04-15T20:31:33.229Z,14.80
2023-04-15T20:34:00.821Z,18.20
2023-04-15T20:36:28.372Z,23.00
2023-04-15T20:38:55.879Z,23.90
2023-04-15T20:41:23.426Z,20.40
2023-04-15T20:43:51.037Z,17.20
2023-04-15T20:46:21.554Z,15.50
2023-04-15T20:48:49.325Z,14.30
2023-04-15T20:51:16.914Z,15.60
2023-04-15T20:53:44.461Z,14.40
2023-04-15T20:56:12.027Z,15.90
2023-04-15T20:58:39.596Z,16.50
2023-04-15T21:01:07.416Z,16.90
2023-04-15T21:03:35.180Z,15.10
2023-04-15T21:06:02.885Z,18.80
2023-04-15T21:08:30.424Z,15.70
2023-04-15T21:10:58.067Z,19.00
2023-04-15T21:13:25.653Z,19.90
2023-04-15T21:15:53.195Z,19.20
2023-04-15T21:18:22.019Z,19.40
2023-04-15T21:20:57.546Z,20.90
2023-04-15T21:23:26.392Z,20.70
2023-04-15T21:25:54.027Z,17.80
2023-04-15T21:28:22.241Z,16.30
2023-04-15T21:30:49.917Z,24.60
2023-04-15T21:33:17.939Z,29.60
2023-04-15T21:35:45.562Z,36.10
2023-04-15T21:38:13.162Z,34.20
2023-04-15T21:40:40.927Z,29.10
2023-04-15T21:43:08.716Z,25.50
2023-04-15T21:45:36.597Z,25.40
2023-04-15T21:48:07.834Z,23.70
2023-04-15T21:50:37.267Z,24.30
2023-04-15T21:53:07.665Z,24.20
2023-04-15T21:55:35.624Z,22.90
2023-04-15T21:58:03.223Z,23.10
2023-04-15T22:00:30.727Z,25.10
2023-04-15T22:02:58.374Z,22.30
2023-04-15T22:05:26.005Z,27.00
2023-04-15T22:07:53.517Z,27.70
2023-04-15T22:10:21.145Z,26.30
2023-04-15T22:12:48.692Z,24.50
2023-04-15T22:15:16.239Z,25.10
2023-04-15T22:17:43.775Z,24.20
2023-04-15T22:20:11.344Z,25.30
2023-04-15T22:22:44.173Z,26.80
2023-04-15T22:25:12.374Z,25.70
2023-04-15T22:27:39.928Z,26.00
2023-04-15T22:30:08.265Z,27.50
2023-04-15T22:32:36.016Z,26.30
2023-04-15T22:35:03.976Z,25.00
2023-04-15T22:37:31.588Z,24.00
2023-04-15T22:39:59.301Z,25.80
2023-04-15T22:42:27.302Z,22.40
2023-04-15T22:44:54.857Z,22.80
2023-04-15T22:47:22.437Z,25.90
2023-04-15T22:49:49.950Z,29.40
2023-04-15T22:52:27.195Z,26.10
2023-04-15T22:54:57.476Z,26.40
2023-04-15T22:57:25.092Z,25.00
2023-04-15T22:59:52.662Z,24.40
2023-04-15T23:02:20.322Z,29.10
2023-04-15T23:04:48.193Z,27.20
2023-04-15T23:07:15.782Z,27.30
2023-04-15T23:09:43.348Z,23.30
2023-04-15T23:12:11.008Z,20.30
2023-04-15T23:14:38.565Z,23.40
2023-04-15T23:17:06.252Z,23.70
2023-04-15T23:19:33.828Z,24.10
2023-04-15T23:22:01.443Z,20.30
2023-04-15T23:24:29.008Z,20.50
2023-04-15T23:26:56.545Z,23.10
2023-04-15T23:29:24.118Z,25.70
2023-04-15T23:31:51.648Z,22.10
2023-04-15T23:34:19.327Z,20.80
2023-04-15T23:36:46.881Z,21.50
2023-04-15T23:39:14.497Z,20.30
2023-04-15T23:41:42.091Z,23.70
2023-04-15T23:44:09.689Z,22.50
2023-04-15T23:46:37.305Z,21.00
2023-04-15T23:49:04.893Z,21.60
2023-04-15T23:51:32.448Z,20.70
2023-04-15T23:54:00.056Z,22.10
2023-04-15T23:56:27.638Z,19.30
2023-04-15T23:58:55.196Z,21.90
